createdAt,value
2023-03-22T06:11:49.959Z,4.13
2023-03-22T06:14:17.011Z,3.90
2023-03-22T06:16:43.684Z,3.60
2023-03-22T06:19:10.579Z,4.20
2023-03-22T06:21:37.240Z,3.55
2023-03-22T06:24:04.020Z,3.53
2023-03-22T06:26:31.229Z,3.70
2023-03-22T06:28:57.845Z,3.25
2023-03-22T06:31:24.537Z,3.50
2023-03-22T06:33:52.282Z,3.25
2023-03-22T06:36:19.716Z,3.17
2023-03-22T06:38:46.570Z,3.30
2023-03-22T06:41:13.286Z,3.40
2023-03-22T06:43:39.909Z,3.10
2023-03-22T06:46:06.694Z,3.80
2023-03-22T06:48:33.442Z,2.90
2023-03-22T06:51:00.809Z,2.90
2023-03-22T06:53:28.012Z,3.50
2023-03-22T06:55:55.502Z,3.78
2023-03-22T06:58:22.643Z,2.50
2023-03-22T07:00:49.381Z,2.33
2023-03-22T07:03:15.981Z,3.42
2023-03-22T07:05:42.671Z,2.88
2023-03-22T07:08:09.555Z,2.25
2023-03-22T07:10:36.432Z,2.38
2023-03-22T07:13:03.295Z,2.53
2023-03-22T07:15:31.218Z,1.98
2023-03-22T07:17:58.038Z,2.22
2023-03-22T07:20:24.737Z,2.05
2023-03-22T07:22:51.597Z,2.78
2023-03-22T07:25:18.732Z,2.50
2023-03-22T07:27:45.614Z,2.13
2023-03-22T07:30:12.620Z,2.05
2023-03-22T07:32:42.324Z,2.22
2023-03-22T07:35:09.215Z,1.70
2023-03-22T07:37:36.147Z,2.33
2023-03-22T07:40:04.849Z,2.55
2023-03-22T07:42:31.730Z,2.13
2023-03-22T07:44:58.416Z,2.10
2023-03-22T07:47:39.833Z,2.10
2023-03-22T07:50:07.354Z,2.13
2023-03-22T07:52:34.114Z,2.67
2023-03-22T07:55:00.743Z,1.92
2023-03-22T07:57:27.381Z,1.75
2023-03-22T07:59:54.064Z,2.13
2023-03-22T08:02:20.711Z,1.92
2023-03-22T08:04:51.836Z,1.92
2023-03-22T08:07:19.235Z,1.85
2023-03-22T08:09:46.138Z,2.10
2023-03-22T08:12:13.146Z,2.08
2023-03-22T08:14:40.014Z,2.17
2023-03-22T08:17:06.714Z,2.50
2023-03-22T08:19:34.162Z,1.95
2023-03-22T08:22:01.060Z,2.25
2023-03-22T08:24:27.840Z,2.00
2023-03-22T08:26:54.690Z,2.13
2023-03-22T08:29:23.118Z,2.30
2023-03-22T08:31:51.175Z,2.42
2023-03-22T08:34:17.900Z,2.42
2023-03-22T08:36:44.565Z,2.00
2023-03-22T08:39:11.124Z,2.35
2023-03-22T08:41:38.736Z,2.60
2023-03-22T08:44:05.803Z,2.17
2023-03-22T08:46:32.477Z,1.85
2023-03-22T08:49:00.946Z,1.70
2023-03-22T08:51:27.637Z,2.70
2023-03-22T08:53:54.351Z,2.42
2023-03-22T08:56:22.649Z,2.00
2023-03-22T08:58:49.295Z,1.70
2023-03-22T09:01:17.466Z,2.28
2023-03-22T09:03:44.160Z,2.00
2023-03-22T09:06:11.120Z,2.30
2023-03-22T09:08:38.231Z,1.60
2023-03-22T09:11:07.743Z,1.60
2023-03-22T09:13:34.661Z,1.65
2023-03-22T09:16:01.429Z,1.98
2023-03-22T09:18:28.257Z,1.35
2023-03-22T09:20:54.910Z,1.85
2023-03-22T09:23:21.624Z,1.85
2023-03-22T09:25:49.104Z,1.50
2023-03-22T09:28:16.611Z,1.30
2023-03-22T09:30:44.809Z,1.30
2023-03-22T09:33:11.634Z,2.13
2023-03-22T09:35:43.074Z,1.83
2023-03-22T09:38:10.905Z,1.58
2023-03-22T09:40:43.358Z,1.40
2023-03-22T09:43:14.877Z,1.60
2023-03-22T09:45:46.284Z,1.77
2023-03-22T09:48:24.310Z,1.88
2023-03-22T09:50:53.338Z,1.60
2023-03-22T09:53:22.420Z,1.58
2023-03-22T09:55:56.737Z,1.90
2023-03-22T10:01:19.600Z,1.63
2023-03-22T10:04:14.834Z,1.60
2023-03-22T10:06:49.099Z,1.60
2023-03-22T10:09:29.064Z,2.53
2023-03-22T10:12:22.508Z,1.15
2023-03-22T10:14:59.329Z,1.73
2023-03-22T10:17:28.601Z,1.52
2023-03-22T10:20:09.334Z,1.80
2023-03-22T10:22:40.370Z,1.42
2023-03-22T10:25:08.540Z,1.70
2023-03-22T10:27:37.190Z,1.70
2023-03-22T10:30:08.758Z,2.20
2023-03-22T10:32:57.240Z,2.03
2023-03-22T10:35:24.889Z,1.35
2023-03-22T10:37:54.571Z,1.55
2023-03-22T10:40:26.155Z,1.95
2023-03-22T10:42:56.561Z,1.60
2023-03-22T10:45:26.262Z,1.88
2023-03-22T10:48:02.772Z,2.03
2023-03-22T10:50:39.937Z,1.63
2023-03-22T10:53:25.849Z,2.33
2023-03-22T10:55:52.859Z,1.73
2023-03-22T10:58:22.268Z,1.95
2023-03-22T11:00:59.703Z,1.60
2023-03-22T11:03:50.143Z,1.65
2023-03-22T11:06:40.609Z,2.58
2023-03-22T11:09:17.342Z,1.60
2023-03-22T11:11:57.466Z,1.65
2023-03-22T11:14:32.133Z,2.30
2023-03-22T11:17:06.873Z,1.92
2023-03-22T11:19:49.510Z,1.85
2023-03-22T11:22:39.344Z,1.85
2023-03-22T11:25:26.396Z,1.65
2023-03-22T11:27:56.818Z,1.55
2023-03-22T11:30:24.938Z,1.50
2023-03-22T11:33:00.705Z,2.05
2023-03-22T11:35:29.966Z,1.42
2023-03-22T11:37:57.297Z,1.90
2023-03-22T11:40:28.540Z,1.70
2023-03-22T11:43:18.998Z,1.77
2023-03-22T11:45:48.155Z,1.90
2023-03-22T11:48:27.576Z,1.80
2023-03-22T11:50:58.809Z,1.90
2023-03-22T11:53:27.511Z,1.52
2023-03-22T11:55:57.476Z,1.65
2023-03-22T11:58:28.490Z,1.60
2023-03-22T12:00:59.446Z,1.98
2023-03-22T12:03:36.193Z,1.65
2023-03-22T12:06:19.609Z,1.48
2023-03-22T12:09:09.306Z,2.38
2023-03-22T12:11:41.371Z,1.88
2023-03-22T12:14:17.528Z,1.40
2023-03-22T12:17:06.058Z,1.63
2023-03-22T12:19:56.632Z,2.33
2023-03-22T12:22:31.576Z,2.20
2023-03-22T12:24:59.325Z,1.42
2023-03-22T12:27:36.696Z,1.85
2023-03-22T12:30:12.173Z,1.58
2023-03-22T12:32:57.325Z,1.48
2023-03-22T12:35:31.436Z,1.70
2023-03-22T12:38:01.659Z,1.95
2023-03-22T12:40:40.188Z,1.60
2023-03-22T12:43:35.779Z,1.38
2023-03-22T12:46:05.201Z,1.83
2023-03-22T12:48:46.545Z,1.17
2023-03-22T12:51:14.474Z,2.00
2023-03-22T12:53:54.326Z,1.55
2023-03-22T12:56:32.847Z,1.13
2023-03-22T12:59:04.527Z,1.45
2023-03-22T13:01:35.080Z,1.30
2023-03-22T13:04:29.697Z,1.50
2023-03-22T13:07:08.940Z,1.52
2023-03-22T13:09:40.324Z,1.45
2023-03-22T13:12:16.527Z,1.33
2023-03-22T13:14:51.869Z,1.55
2023-03-22T13:17:25.287Z,1.40
2023-03-22T13:20:27.037Z,1.15
2023-03-22T13:22:53.570Z,1.70
2023-03-22T13:25:24.055Z,1.80
2023-03-22T13:27:59.010Z,1.60
2023-03-22T13:30:33.046Z,1.38
2023-03-22T13:35:45.418Z,1.92
2023-03-22T13:38:27.699Z,2.00
2023-03-22T13:41:26.882Z,1.88
2023-03-22T13:43:56.217Z,1.60
2023-03-22T13:46:22.988Z,1.88
2023-03-22T13:48:52.907Z,2.35
2023-03-22T13:51:22.828Z,1.30
2023-03-22T13:53:52.226Z,2.00
2023-03-22T13:56:33.695Z,2.03
2023-03-22T13:59:03.591Z,2.53
2023-03-22T14:01:37.604Z,2.00
2023-03-22T14:04:12.294Z,2.25
2023-03-22T14:06:56.037Z,2.17
2023-03-22T14:09:43.503Z,1.97
2023-03-22T14:12:22.681Z,2.60
2023-03-22T14:14:55.613Z,2.10
2023-03-22T14:17:42.226Z,2.17
2023-03-22T14:20:15.667Z,2.42
